Time;durP1;ratioP1;P1;durP2;ratioP2;P2;SDS_P1;SDS_P2;PMS_P1;PMS_P2;Temp;Humidity;BMP_temperature;BMP_pressure;BME280_temperature;BME280_humidity;BME280_pressure;Samples;Min_cycle;Max_cycle;Signal;HPM_P1;HPM_P2
2022/01/21 00:01:21;;;;;;;1.73;0.90;;;;;;;;;;6370479;22;19995;-87
2022/01/21 00:03:47;;;;;;;1.60;1.00;;;;;;;;;;6370651;22;19998;-87
2022/01/21 00:06:13;;;;;;;1.65;1.30;;;;;;;;;;6370710;22;20013;-87
2022/01/21 00:08:40;;;;;;;1.88;0.98;;;;;;;;;;6370803;22;19998;-85
2022/01/21 00:11:07;;;;;;;1.20;1.10;;;;;;;;;;6370762;22;20321;-85
2022/01/21 00:13:36;;;;;;;1.08;0.90;;;;;;;;;;6370911;22;20493;-84
2022/01/21 00:16:01;;;;;;;1.10;1.00;;;;;;;;;;6369218;22;20025;-84
2022/01/21 00:18:27;;;;;;;1.88;0.90;;;;;;;;;;6370411;22;20429;-87
2022/01/21 00:31:48;;;;;;;1.95;1.75;;;;;;;;;;6372622;22;20333;-88
2022/01/21 00:34:14;;;;;;;1.73;1.20;;;;;;;;;;6372548;22;20002;-87
2022/01/21 00:36:39;;;;;;;1.80;1.08;;;;;;;;;;6372645;22;20139;-84
2022/01/21 00:39:05;;;;;;;1.30;1.20;;;;;;;;;;6372513;22;19998;-88
2022/01/21 00:41:35;;;;;;;1.58;0.93;;;;;;;;;;6372817;22;19999;-85
2022/01/21 00:44:00;;;;;;;0.82;0.80;;;;;;;;;;6372610;22;19998;-87
2022/01/21 00:46:26;;;;;;;1.70;1.00;;;;;;;;;;6372512;22;20048;-85
2022/01/21 00:48:51;;;;;;;2.80;1.58;;;;;;;;;;6372474;22;20430;-85
2022/01/21 00:51:17;;;;;;;1.02;0.65;;;;;;;;;;6372836;22;20002;-87
2022/01/21 00:53:42;;;;;;;1.52;1.23;;;;;;;;;;6372635;22;20081;-86
2022/01/21 00:56:08;;;;;;;0.70;0.70;;;;;;;;;;6373003;22;20002;-87
2022/01/21 00:58:33;;;;;;;1.00;0.90;;;;;;;;;;6372472;22;20002;-86
2022/01/21 01:00:58;;;;;;;0.70;0.70;;;;;;;;;;6372844;22;20007;-87
2022/01/21 01:03:24;;;;;;;0.70;0.70;;;;;;;;;;6372398;22;20002;-86
2022/01/21 01:05:51;;;;;;;1.67;0.85;;;;;;;;;;6370708;22;20006;-86
2022/01/21 01:08:17;;;;;;;0.73;0.73;;;;;;;;;;6372573;22;20004;-85
2022/01/21 01:21:32;;;;;;;0.77;0.70;;;;;;;;;;6372368;22;20048;-87
2022/01/21 01:29:21;;;;;;;2.15;0.70;;;;;;;;;;6372556;22;20059;-88
2022/01/21 01:31:46;;;;;;;0.90;0.70;;;;;;;;;;6372169;22;19998;-84
2022/01/21 01:34:13;;;;;;;0.68;0.68;;;;;;;;;;6371981;22;20005;-86
2022/01/21 01:36:42;;;;;;;0.95;0.73;;;;;;;;;;6371905;22;20046;-87
2022/01/21 01:39:15;;;;;;;0.80;0.70;;;;;;;;;;6372302;22;20048;-85
2022/01/21 01:41:56;;;;;;;0.93;0.70;;;;;;;;;;6371897;22;20024;-87
2022/01/21 01:49:49;;;;;;;1.45;0.90;;;;;;;;;;6372041;22;20055;-85
2022/01/21 01:52:17;;;;;;;0.70;0.70;;;;;;;;;;6371775;22;20364;-84
2022/01/21 01:54:53;;;;;;;0.73;0.73;;;;;;;;;;6372010;22;20006;-84
2022/01/21 01:57:19;;;;;;;0.88;0.88;;;;;;;;;;6371790;22;20073;-85
2022/01/21 01:59:45;;;;;;;0.55;0.55;;;;;;;;;;6371780;22;20453;-84
2022/01/21 02:02:13;;;;;;;0.68;0.68;;;;;;;;;;6371824;22;19994;-85
2022/01/21 02:04:39;;;;;;;0.70;0.70;;;;;;;;;;6371806;22;20009;-84
2022/01/21 02:07:06;;;;;;;0.90;0.90;;;;;;;;;;6371613;22;20440;-85
2022/01/21 02:09:32;;;;;;;0.65;0.60;;;;;;;;;;6371653;22;20003;-85
2022/01/21 02:11:58;;;;;;;0.82;0.70;;;;;;;;;;6371670;22;20359;-88
2022/01/21 02:14:43;;;;;;;1.02;0.90;;;;;;;;;;6371877;22;20087;-85
2022/01/21 02:22:38;;;;;;;0.98;0.65;;;;;;;;;;6371577;22;20013;-85
2022/01/21 02:25:20;;;;;;;1.10;0.90;;;;;;;;;;6371710;22;20448;-84
2022/01/21 02:27:56;;;;;;;0.82;0.60;;;;;;;;;;6371454;22;20009;-84
2022/01/21 02:30:23;;;;;;;0.60;0.60;;;;;;;;;;6371653;22;19998;-84
2022/01/21 02:32:54;;;;;;;0.63;0.63;;;;;;;;;;6371340;22;20073;-84
2022/01/21 02:35:21;;;;;;;0.82;0.50;;;;;;;;;;6370616;22;20002;-85
2022/01/21 02:37:48;;;;;;;0.60;0.60;;;;;;;;;;6371364;22;19999;-83
2022/01/21 02:40:15;;;;;;;0.82;0.82;;;;;;;;;;6371377;22;20033;-84
2022/01/21 02:42:42;;;;;;;0.70;0.70;;;;;;;;;;6371543;22;20417;-87
2022/01/21 02:45:10;;;;;;;1.40;0.80;;;;;;;;;;6371165;22;20075;-84
2022/01/21 02:47:35;;;;;;;0.95;0.70;;;;;;;;;;6371164;22;20089;-84
2022/01/21 02:50:01;;;;;;;1.00;0.88;;;;;;;;;;6369787;22;19998;-83
2022/01/21 02:52:29;;;;;;;0.82;0.80;;;;;;;;;;6371516;22;20366;-84
2022/01/21 02:54:55;;;;;;;0.60;0.60;;;;;;;;;;6371272;22;19998;-84
2022/01/21 02:57:22;;;;;;;1.45;0.75;;;;;;;;;;6371428;22;20009;-84
2022/01/21 02:59:49;;;;;;;0.60;0.60;;;;;;;;;;6371271;22;20073;-85
2022/01/21 03:02:15;;;;;;;1.13;0.70;;;;;;;;;;6369681;22;20009;-84
2022/01/21 03:05:03;;;;;;;0.70;0.70;;;;;;;;;;6371090;22;20077;-85
2022/01/21 03:07:29;;;;;;;1.08;0.70;;;;;;;;;;6371098;22;20006;-87
2022/01/21 03:09:54;;;;;;;0.70;0.70;;;;;;;;;;6371147;22;20029;-85
2022/01/21 03:12:21;;;;;;;1.00;0.70;;;;;;;;;;6371059;22;20077;-84
2022/01/21 03:14:47;;;;;;;0.60;0.60;;;;;;;;;;6370961;22;20321;-84
2022/01/21 03:17:13;;;;;;;1.15;0.70;;;;;;;;;;6371203;22;20022;-84
2022/01/21 03:19:38;;;;;;;1.20;0.80;;;;;;;;;;6371222;22;19998;-83
2022/01/21 03:22:05;;;;;;;0.70;0.70;;;;;;;;;;6371091;22;20077;-84
2022/01/21 03:24:30;;;;;;;0.85;0.85;;;;;;;;;;6370955;22;20009;-84
2022/01/21 03:26:55;;;;;;;1.27;0.77;;;;;;;;;;6370841;22;20006;-84
2022/01/21 03:29:21;;;;;;;0.80;0.70;;;;;;;;;;6370933;22;20006;-84
2022/01/21 03:31:47;;;;;;;1.10;0.80;;;;;;;;;;6370852;22;20073;-83
2022/01/21 03:34:12;;;;;;;1.33;0.80;;;;;;;;;;6370880;22;20006;-84
2022/01/21 03:36:40;;;;;;;1.23;0.85;;;;;;;;;;6371005;22;19998;-87
2022/01/21 03:39:05;;;;;;;1.17;0.85;;;;;;;;;;6369214;22;20028;-87
2022/01/21 03:41:31;;;;;;;0.60;0.60;;;;;;;;;;6370947;22;19999;-84
2022/01/21 03:43:56;;;;;;;0.70;0.70;;;;;;;;;;6370826;22;19998;-84
2022/01/21 03:46:22;;;;;;;0.63;0.63;;;;;;;;;;6370843;22;20006;-84
2022/01/21 03:48:49;;;;;;;3.13;0.70;;;;;;;;;;6370780;22;20364;-88
2022/01/21 03:51:17;;;;;;;0.63;0.63;;;;;;;;;;6370870;22;20077;-87
2022/01/21 03:53:44;;;;;;;0.82;0.80;;;;;;;;;;6370899;22;20363;-86
2022/01/21 03:56:09;;;;;;;0.70;0.70;;;;;;;;;;6369232;22;20013;-87
2022/01/21 03:58:35;;;;;;;1.23;0.70;;;;;;;;;;6370998;22;20370;-84
2022/01/21 04:01:00;;;;;;;0.70;0.70;;;;;;;;;;6372637;22;20329;-84
2022/01/21 04:03:27;;;;;;;0.95;0.65;;;;;;;;;;6373014;22;20013;-84
2022/01/21 04:05:52;;;;;;;0.95;0.82;;;;;;;;;;6373143;22;20005;-88
2022/01/21 04:08:18;;;;;;;0.65;0.65;;;;;;;;;;6372842;22;20003;-86
2022/01/21 04:10:44;;;;;;;1.00;0.60;;;;;;;;;;6372903;22;20002;-84
2022/01/21 04:13:18;;;;;;;0.70;0.70;;;;;;;;;;6373204;22;20386;-84
2022/01/21 04:15:47;;;;;;;0.60;0.60;;;;;;;;;;6372744;22;20006;-84
2022/01/21 04:18:15;;;;;;;0.70;0.70;;;;;;;;;;6372694;22;20010;-84
2022/01/21 04:20:41;;;;;;;0.88;0.63;;;;;;;;;;6372914;22;20002;-87
2022/01/21 04:23:08;;;;;;;0.55;0.55;;;;;;;;;;6372668;22;20032;-86
2022/01/21 04:25:33;;;;;;;0.43;0.43;;;;;;;;;;6372510;22;20002;-84
2022/01/21 04:27:59;;;;;;;1.52;0.60;;;;;;;;;;6372945;22;20025;-84
2022/01/21 04:30:24;;;;;;;0.95;0.95;;;;;;;;;;6372806;22;20002;-87
2022/01/21 04:32:50;;;;;;;1.05;0.88;;;;;;;;;;6372808;22;20043;-84
2022/01/21 04:35:15;;;;;;;1.58;0.80;;;;;;;;;;6372599;22;20052;-84
2022/01/21 04:37:48;;;;;;;0.82;0.80;;;;;;;;;;6372594;22;20069;-84
2022/01/21 04:40:17;;;;;;;0.82;0.82;;;;;;;;;;6372603;22;20002;-84
2022/01/21 04:48:10;;;;;;;1.13;0.95;;;;;;;;;;6372537;22;20009;-84
2022/01/21 04:50:57;;;;;;;0.73;0.70;;;;;;;;;;6372369;22;20409;-84
2022/01/21 04:53:25;;;;;;;0.60;0.60;;;;;;;;;;6370415;22;20010;-83
2022/01/21 04:55:51;;;;;;;0.60;0.60;;;;;;;;;;6370255;22;20029;-88
2022/01/21 04:58:17;;;;;;;0.60;0.60;;;;;;;;;;6372065;22;20429;-85
2022/01/21 05:00:43;;;;;;;0.70;0.70;;;;;;;;;;6372333;22;20099;-85
2022/01/21 05:03:10;;;;;;;0.65;0.65;;;;;;;;;;6372586;22;20002;-84
2022/01/21 05:05:36;;;;;;;1.75;0.73;;;;;;;;;;6370777;22;20010;-84
2022/01/21 05:08:05;;;;;;;0.55;0.55;;;;;;;;;;6372428;22;20025;-87
2022/01/21 05:10:31;;;;;;;0.77;0.70;;;;;;;;;;6372585;22;20026;-84
2022/01/21 05:12:56;;;;;;;0.90;0.90;;;;;;;;;;6372263;22;20080;-87
2022/01/21 05:15:47;;;;;;;1.27;0.70;;;;;;;;;;6372421;22;20007;-84
2022/01/21 05:18:13;;;;;;;0.70;0.70;;;;;;;;;;6370465;22;20086;-85
2022/01/21 05:20:38;;;;;;;1.00;0.75;;;;;;;;;;6371997;22;20025;-84
2022/01/21 05:23:03;;;;;;;0.70;0.70;;;;;;;;;;6372103;22;20010;-84
2022/01/21 05:25:29;;;;;;;0.63;0.63;;;;;;;;;;6370467;22;20013;-84
2022/01/21 05:27:58;;;;;;;0.52;0.52;;;;;;;;;;6375150;22;20021;-84
2022/01/21 05:30:23;;;;;;;0.65;0.65;;;;;;;;;;6372077;22;20002;-84
2022/01/21 05:32:49;;;;;;;1.38;0.65;;;;;;;;;;6370465;22;20045;-84
2022/01/21 05:35:14;;;;;;;0.50;0.50;;;;;;;;;;6372087;22;20381;-84
2022/01/21 05:37:40;;;;;;;0.47;0.47;;;;;;;;;;6372026;22;20007;-84
2022/01/21 05:40:09;;;;;;;0.85;0.85;;;;;;;;;;6372045;22;20425;-84
2022/01/21 05:42:36;;;;;;;0.88;0.70;;;;;;;;;;6370621;22;20052;-84
2022/01/21 05:47:29;;;;;;;0.60;0.60;;;;;;;;;;6371687;22;20006;-84
2022/01/21 05:49:55;;;;;;;0.68;0.68;;;;;;;;;;6370567;22;20002;-84
2022/01/21 05:52:28;;;;;;;0.85;0.65;;;;;;;;;;6371822;22;20448;-84
2022/01/21 05:54:53;;;;;;;0.80;0.80;;;;;;;;;;6370071;22;20009;-84
2022/01/21 05:57:19;;;;;;;0.70;0.70;;;;;;;;;;6371810;22;20316;-84
2022/01/21 12:33:18;;;;;;;2.22;1.80;;;;;;;;;;6331656;22;20019;-81
2022/01/21 12:35:46;;;;;;;2.47;1.30;;;;;;;;;;6376845;22;20425;-80
2022/01/21 12:40:56;;;;;;;1.35;0.77;;;;;;;;;;6372885;22;20022;-80
2022/01/21 12:43:39;;;;;;;2.17;0.82;;;;;;;;;;6372683;22;20002;-80
2022/01/21 12:46:07;;;;;;;4.20;1.00;;;;;;;;;;6372890;22;20005;-80
2022/01/21 13:37:58;;;;;;;51.28;28.90;;;;;;;;;;6366959;22;20400;-82
2022/01/21 13:40:24;;;;;;;52.78;28.67;;;;;;;;;;6371980;22;20006;-84
2022/01/21 13:42:50;;;;;;;54.55;29.15;;;;;;;;;;6371972;22;20417;-83
2022/01/21 13:45:15;;;;;;;41.97;22.30;;;;;;;;;;6343929;22;20086;-83
2022/01/21 13:47:44;;;;;;;47.13;26.48;;;;;;;;;;6371718;22;20002;-84
2022/01/21 13:50:17;;;;;;;67.45;34.47;;;;;;;;;;6371810;22;20087;-82
2022/01/21 13:52:45;;;;;;;76.40;40.85;;;;;;;;;;6371791;22;19999;-81
2022/01/21 13:55:34;;;;;;;77.13;38.72;;;;;;;;;;6371953;22;20006;-82
2022/01/21 13:58:04;;;;;;;72.32;36.30;;;;;;;;;;6348035;22;20030;-84
2022/01/21 14:00:32;;;;;;;60.80;32.28;;;;;;;;;;6370985;22;20002;-82
2022/01/21 14:03:05;;;;;;;73.10;38.20;;;;;;;;;;6371382;22;20003;-84
2022/01/21 14:05:47;;;;;;;73.25;39.50;;;;;;;;;;6371617;22;20359;-83
2022/01/21 14:08:17;;;;;;;58.20;30.50;;;;;;;;;;6372311;22;20033;-81
2022/01/21 14:10:42;;;;;;;63.75;33.72;;;;;;;;;;6371736;22;20047;-82
2022/01/21 14:13:09;;;;;;;63.17;31.95;;;;;;;;;;6371332;22;20006;-81
2022/01/21 14:15:35;;;;;;;59.33;29.50;;;;;;;;;;6371502;22;20028;-81
2022/01/21 14:18:01;;;;;;;56.28;29.13;;;;;;;;;;6371574;22;20481;-81
2022/01/21 14:20:27;;;;;;;57.42;29.70;;;;;;;;;;6374805;22;20069;-82
2022/01/21 14:22:53;;;;;;;63.88;33.17;;;;;;;;;;6343152;22;20031;-81
2022/01/21 14:25:20;;;;;;;65.68;35.40;;;;;;;;;;6371502;22;20015;-82
2022/01/21 14:27:48;;;;;;;64.60;33.92;;;;;;;;;;6368415;22;20037;-82
2022/01/21 14:30:17;;;;;;;63.60;34.25;;;;;;;;;;6370485;22;19998;-82
2022/01/21 14:32:49;;;;;;;64.90;34.88;;;;;;;;;;6370880;22;20026;-82
2022/01/21 14:35:14;;;;;;;65.43;34.30;;;;;;;;;;6371231;22;20003;-82
2022/01/21 14:37:45;;;;;;;69.03;34.33;;;;;;;;;;6371215;22;20136;-83
2022/01/21 14:40:17;;;;;;;61.30;33.58;;;;;;;;;;6371271;22;20437;-83
2022/01/21 14:42:43;;;;;;;60.42;32.35;;;;;;;;;;6343462;22;19998;-83
2022/01/21 14:45:13;;;;;;;65.28;31.80;;;;;;;;;;6371214;22;20005;-82
2022/01/21 14:47:39;;;;;;;84.57;39.72;;;;;;;;;;6371310;22;20006;-81
2022/01/21 14:50:14;;;;;;;65.20;34.97;;;;;;;;;;6371137;22;20025;-82
2022/01/21 14:52:57;;;;;;;93.00;45.47;;;;;;;;;;6370981;22;20466;-82
2022/01/21 14:55:32;;;;;;;62.92;31.92;;;;;;;;;;6371196;22;20002;-83
2022/01/21 14:58:11;;;;;;;62.25;32.42;;;;;;;;;;6371069;22;20002;-81
2022/01/21 15:00:52;;;;;;;69.15;34.38;;;;;;;;;;6370899;22;20002;-82
2022/01/21 15:03:29;;;;;;;59.00;31.10;;;;;;;;;;6343131;22;20090;-82
2022/01/21 15:06:15;;;;;;;62.35;32.20;;;;;;;;;;6370878;22;20047;-82
2022/01/21 15:08:45;;;;;;;60.33;31.70;;;;;;;;;;6370691;22;20002;-82
2022/01/21 15:16:31;;;;;;;58.60;29.75;;;;;;;;;;6370907;22;20009;-82
2022/01/21 15:18:58;;;;;;;60.47;30.60;;;;;;;;;;6371139;22;20003;-81
2022/01/21 15:21:29;;;;;;;57.55;28.58;;;;;;;;;;6370843;22;20378;-82
2022/01/21 15:23:56;;;;;;;59.38;30.10;;;;;;;;;;6370763;22;19999;-81
2022/01/21 15:26:23;;;;;;;55.28;28.23;;;;;;;;;;6370682;22;20002;-81
2022/01/21 15:28:51;;;;;;;51.20;26.42;;;;;;;;;;6370546;22;19994;-82
2022/01/21 15:31:17;;;;;;;56.78;27.90;;;;;;;;;;6370609;22;20424;-84
2022/01/21 15:33:43;;;;;;;59.97;30.00;;;;;;;;;;6370624;22;20010;-83
2022/01/21 15:36:10;;;;;;;55.88;27.38;;;;;;;;;;6369533;22;20012;-83
2022/01/21 15:38:36;;;;;;;40.22;19.70;;;;;;;;;;6370180;22;20013;-82
2022/01/21 15:41:02;;;;;;;45.97;24.65;;;;;;;;;;6370687;22;20005;-83
2022/01/21 15:43:28;;;;;;;40.92;22.40;;;;;;;;;;6370343;22;19998;-83
2022/01/21 15:45:53;;;;;;;42.85;21.27;;;;;;;;;;6370368;22;19999;-82
2022/01/21 15:48:19;;;;;;;43.13;22.65;;;;;;;;;;6369749;22;20325;-83
2022/01/21 15:50:45;;;;;;;43.15;21.75;;;;;;;;;;6369955;22;20488;-82
2022/01/21 15:53:11;;;;;;;42.28;22.85;;;;;;;;;;6370939;22;20051;-82
2022/01/21 15:55:37;;;;;;;46.95;23.45;;;;;;;;;;6370440;22;20010;-82
2022/01/21 15:58:03;;;;;;;44.35;23.52;;;;;;;;;;6370637;22;20429;-83
2022/01/21 16:00:29;;;;;;;40.97;22.90;;;;;;;;;;6316804;22;20425;-82
2022/01/21 16:03:00;;;;;;;48.28;24.17;;;;;;;;;;6370338;22;20010;-82
2022/01/21 16:05:26;;;;;;;50.20;24.63;;;;;;;;;;6371093;22;20003;-81
2022/01/21 16:07:52;;;;;;;46.88;24.17;;;;;;;;;;6370398;22;20367;-82
2022/01/21 16:10:19;;;;;;;52.38;25.17;;;;;;;;;;6342872;22;20012;-82
2022/01/21 16:12:44;;;;;;;44.67;25.35;;;;;;;;;;6370202;22;19998;-82
2022/01/21 16:15:10;;;;;;;48.67;24.77;;;;;;;;;;6342454;22;20444;-82
2022/01/21 16:17:36;;;;;;;52.05;25.63;;;;;;;;;;6370247;22;20034;-82
2022/01/21 16:20:04;;;;;;;51.60;23.48;;;;;;;;;;6370323;22;20002;-82
2022/01/21 16:22:29;;;;;;;47.08;23.77;;;;;;;;;;6370304;22;19999;-82
2022/01/21 16:24:55;;;;;;;47.63;24.40;;;;;;;;;;6370706;22;20008;-82
2022/01/21 16:27:21;;;;;;;49.45;24.30;;;;;;;;;;6370625;22;20006;-82
2022/01/21 16:29:46;;;;;;;48.45;25.73;;;;;;;;;;6370280;22;20440;-82
2022/01/21 16:32:11;;;;;;;48.05;25.90;;;;;;;;;;6342474;22;20022;-81
2022/01/21 16:34:37;;;;;;;45.53;24.42;;;;;;;;;;6342190;22;20013;-82
2022/01/21 16:37:04;;;;;;;48.90;23.55;;;;;;;;;;6370885;22;20004;-81
2022/01/21 16:39:30;;;;;;;44.17;22.52;;;;;;;;;;6370190;22;20070;-81
2022/01/21 16:41:55;;;;;;;49.20;24.23;;;;;;;;;;6370375;22;20358;-82
2022/01/21 16:44:21;;;;;;;45.25;23.58;;;;;;;;;;6370286;22;19998;-81
2022/01/21 16:46:46;;;;;;;48.38;22.63;;;;;;;;;;6369928;22;20445;-81
2022/01/21 16:49:12;;;;;;;45.38;23.45;;;;;;;;;;6370683;22;20078;-82
2022/01/21 16:51:37;;;;;;;41.67;21.75;;;;;;;;;;6370483;22;19995;-81
2022/01/21 16:54:04;;;;;;;50.67;24.33;;;;;;;;;;6370365;22;19999;-82
2022/01/21 16:56:34;;;;;;;46.85;24.60;;;;;;;;;;6369673;22;20077;-81
2022/01/21 16:59:00;;;;;;;45.63;22.27;;;;;;;;;;6370221;22;20050;-82
2022/01/21 17:01:27;;;;;;;51.30;25.23;;;;;;;;;;6370154;22;20008;-81
2022/01/21 17:03:53;;;;;;;49.00;25.08;;;;;;;;;;6370355;22;19994;-81
2022/01/21 17:06:19;;;;;;;57.03;26.80;;;;;;;;;;6342297;22;20010;-81
2022/01/21 17:08:45;;;;;;;52.92;26.83;;;;;;;;;;6371943;22;20317;-82
2022/01/21 17:11:10;;;;;;;50.80;26.52;;;;;;;;;;6344048;22;19998;-81
2022/01/21 17:13:35;;;;;;;59.10;27.77;;;;;;;;;;6372110;22;20002;-80
2022/01/21 17:16:01;;;;;;;55.67;27.20;;;;;;;;;;6371734;22;20321;-81
2022/01/21 17:18:27;;;;;;;55.00;27.05;;;;;;;;;;6371903;22;20029;-81
2022/01/21 17:20:55;;;;;;;51.72;26.30;;;;;;;;;;6371685;22;19998;-81
2022/01/21 17:23:21;;;;;;;49.50;26.20;;;;;;;;;;6371757;22;20005;-82
2022/01/21 17:25:46;;;;;;;49.80;26.10;;;;;;;;;;6371839;22;20052;-81
2022/01/21 17:28:12;;;;;;;51.00;25.95;;;;;;;;;;6371806;22;20038;-81
2022/01/21 17:30:38;;;;;;;52.92;26.00;;;;;;;;;;6371233;22;20013;-81
2022/01/21 17:33:03;;;;;;;53.10;25.30;;;;;;;;;;6371895;22;20370;-81
2022/01/21 17:35:29;;;;;;;51.88;23.70;;;;;;;;;;6373414;22;20002;-81
2022/01/21 17:37:54;;;;;;;51.35;21.98;;;;;;;;;;6373840;22;20075;-81
2022/01/21 17:40:22;;;;;;;45.22;24.05;;;;;;;;;;6371674;22;19990;-82
2022/01/21 17:42:48;;;;;;;45.53;23.38;;;;;;;;;;6343225;22;20502;-83
2022/01/21 17:45:21;;;;;;;74.80;39.92;;;;;;;;;;6343342;22;20006;-84
2022/01/21 17:47:52;;;;;;;44.47;22.85;;;;;;;;;;6371413;22;20006;-83
2022/01/21 17:50:21;;;;;;;42.35;20.40;;;;;;;;;;6371420;22;19999;-84
2022/01/21 17:52:46;;;;;;;43.07;20.37;;;;;;;;;;6343334;22;20010;-82
2022/01/21 17:55:12;;;;;;;43.10;20.33;;;;;;;;;;6371427;22;20074;-83
2022/01/21 17:57:38;;;;;;;45.92;22.33;;;;;;;;;;6371403;22;20440;-85
2022/01/21 18:00:08;;;;;;;42.72;22.35;;;;;;;;;;6373359;22;20077;-85
2022/01/21 18:02:33;;;;;;;38.00;18.65;;;;;;;;;;6343883;22;20009;-83
2022/01/21 18:04:59;;;;;;;25.98;13.13;;;;;;;;;;6371291;22;19995;-85
2022/01/21 18:07:24;;;;;;;36.90;17.85;;;;;;;;;;6343364;22;20082;-85
2022/01/21 18:09:50;;;;;;;33.25;15.63;;;;;;;;;;6344017;22;20006;-85
2022/01/21 18:12:15;;;;;;;29.88;15.40;;;;;;;;;;6371200;22;19998;-84
2022/01/21 18:14:42;;;;;;;32.85;16.58;;;;;;;;;;6371760;22;20002;-86
2022/01/21 18:17:07;;;;;;;32.03;16.80;;;;;;;;;;6371178;22;19998;-84
2022/01/21 18:19:53;;;;;;;33.20;16.25;;;;;;;;;;6370745;22;19999;-85
2022/01/21 18:22:19;;;;;;;34.97;16.48;;;;;;;;;;6343176;22;20108;-84
2022/01/21 18:24:45;;;;;;;28.38;15.90;;;;;;;;;;6370921;22;20009;-83
2022/01/21 18:27:12;;;;;;;34.45;16.65;;;;;;;;;;6343160;22;20010;-83
2022/01/21 18:29:39;;;;;;;31.77;17.15;;;;;;;;;;6371160;22;19998;-84
2022/01/21 18:32:06;;;;;;;38.22;19.48;;;;;;;;;;6371392;22;20029;-84
2022/01/21 18:34:32;;;;;;;36.42;17.55;;;;;;;;;;6370754;22;19999;-84
2022/01/21 18:36:58;;;;;;;28.63;14.20;;;;;;;;;;6370932;22;20002;-84
2022/01/21 18:39:24;;;;;;;29.92;15.25;;;;;;;;;;6343232;22;20006;-84
2022/01/21 18:41:50;;;;;;;20.40;10.73;;;;;;;;;;6371369;22;20044;-84
2022/01/21 18:44:17;;;;;;;22.55;12.40;;;;;;;;;;6371247;22;20069;-83
2022/01/21 18:46:47;;;;;;;21.58;11.00;;;;;;;;;;6343365;22;20387;-84
2022/01/21 18:49:14;;;;;;;24.30;11.48;;;;;;;;;;6371282;22;20009;-84
2022/01/21 18:51:46;;;;;;;18.60;9.93;;;;;;;;;;6371285;22;19999;-83
2022/01/21 18:54:12;;;;;;;20.88;9.70;;;;;;;;;;6371165;22;20002;-84
2022/01/21 18:56:39;;;;;;;25.90;11.18;;;;;;;;;;6373639;22;20006;-85
2022/01/21 18:59:05;;;;;;;27.13;12.82;;;;;;;;;;6372056;22;20421;-85
2022/01/21 19:01:34;;;;;;;23.33;12.48;;;;;;;;;;6371203;22;20009;-87
2022/01/21 19:04:02;;;;;;;25.73;13.77;;;;;;;;;;6343080;22;20329;-86
2022/01/21 19:06:30;;;;;;;23.25;12.93;;;;;;;;;;6343223;22;20071;-86
2022/01/21 19:08:57;;;;;;;27.60;13.32;;;;;;;;;;6343197;22;20077;-87
2022/01/21 19:11:24;;;;;;;27.60;13.48;;;;;;;;;;6343375;22;20002;-85
2022/01/21 19:13:49;;;;;;;22.70;11.00;;;;;;;;;;6371040;22;20063;-85
2022/01/21 19:16:15;;;;;;;27.50;13.15;;;;;;;;;;6343473;22;20002;-84
2022/01/21 19:18:40;;;;;;;27.60;16.20;;;;;;;;;;6371110;22;19998;-85
2022/01/21 19:21:10;;;;;;;30.27;15.18;;;;;;;;;;6370899;22;20425;-84
2022/01/21 19:23:37;;;;;;;;;;;;;;;;;;6371674;22;19998;-83
2022/01/21 19:26:05;;;;;;;28.77;13.23;;;;;;;;;;6343125;22;19985;-83
2022/01/21 19:28:34;;;;;;;141.45;63.97;;;;;;;;;;6370889;22;20070;-84
2022/01/21 19:31:02;;;;;;;70.80;38.85;;;;;;;;;;6370803;22;20009;-84
2022/01/21 19:33:28;;;;;;;32.85;16.85;;;;;;;;;;6342939;22;20029;-84
2022/01/21 19:35:57;;;;;;;30.67;15.32;;;;;;;;;;6371032;22;20006;-84
2022/01/21 19:38:23;;;;;;;30.88;16.38;;;;;;;;;;6370574;22;20014;-84
2022/01/21 19:40:49;;;;;;;37.03;20.83;;;;;;;;;;6371031;22;19999;-84
2022/01/21 19:43:15;;;;;;;36.42;21.55;;;;;;;;;;6370801;22;19998;-84
2022/01/21 19:45:48;;;;;;;31.30;16.90;;;;;;;;;;6370718;22;20002;-84
2022/01/21 19:48:21;;;;;;;30.40;13.70;;;;;;;;;;6342748;22;20010;-84
2022/01/21 19:50:48;;;;;;;26.50;14.15;;;;;;;;;;6370804;22;20029;-84
2022/01/21 19:53:14;;;;;;;32.03;16.48;;;;;;;;;;6370950;22;20002;-84
2022/01/21 19:55:43;;;;;;;32.90;14.93;;;;;;;;;;6342861;22;20358;-84
2022/01/21 19:58:12;;;;;;;29.27;16.37;;;;;;;;;;6342726;22;20342;-84
2022/01/21 20:14:01;;;;;;;45.03;22.63;;;;;;;;;;6377658;22;20007;-83
2022/01/21 20:16:26;;;;;;;39.95;20.60;;;;;;;;;;6370607;22;20013;-85
2022/01/21 20:18:54;;;;;;;40.60;20.52;;;;;;;;;;6370621;22;20002;-84
2022/01/21 20:21:21;;;;;;;41.22;20.33;;;;;;;;;;6370498;22;20004;-84
2022/01/21 20:23:48;;;;;;;36.85;19.33;;;;;;;;;;6370658;22;20444;-84
2022/01/21 20:26:15;;;;;;;42.25;22.65;;;;;;;;;;6370495;22;20036;-84
2022/01/21 20:28:42;;;;;;;42.17;20.95;;;;;;;;;;6370599;22;20025;-84
2022/01/21 20:31:08;;;;;;;45.22;20.35;;;;;;;;;;6369528;22;19998;-83
2022/01/21 20:33:36;;;;;;;32.10;16.27;;;;;;;;;;6370238;22;19999;-83
2022/01/21 20:36:08;;;;;;;41.67;20.75;;;;;;;;;;6370334;22;20317;-82
2022/01/21 20:38:38;;;;;;;34.35;18.33;;;;;;;;;;6370382;22;20368;-83
2022/01/21 20:41:11;;;;;;;33.63;17.50;;;;;;;;;;6342629;22;20038;-83
2022/01/21 20:43:37;;;;;;;43.67;20.45;;;;;;;;;;6372328;22;20324;-84
2022/01/21 20:46:04;;;;;;;35.85;18.50;;;;;;;;;;6372202;22;20380;-84
2022/01/21 20:48:31;;;;;;;33.42;17.40;;;;;;;;;;6372309;22;20009;-83
2022/01/21 20:50:58;;;;;;;44.05;20.48;;;;;;;;;;6372284;22;20006;-83
2022/01/21 20:53:24;;;;;;;10.68;6.45;;;;;;;;;;6372454;22;20051;-83
2022/01/21 20:55:50;;;;;;;30.08;15.05;;;;;;;;;;6372215;22;20310;-83
2022/01/21 20:58:16;;;;;;;24.77;13.48;;;;;;;;;;6372110;22;20002;-83
2022/01/21 21:00:47;;;;;;;27.63;13.50;;;;;;;;;;6372314;22;20004;-83
2022/01/21 21:03:13;;;;;;;30.20;15.98;;;;;;;;;;6372140;22;20077;-83
2022/01/21 21:05:39;;;;;;;37.15;17.90;;;;;;;;;;6372144;22;20429;-83
2022/01/21 21:08:04;;;;;;;32.30;16.27;;;;;;;;;;6372052;22;19999;-83
2022/01/21 21:10:31;;;;;;;23.27;12.07;;;;;;;;;;6372176;22;19998;-83
2022/01/21 21:12:56;;;;;;;20.25;11.13;;;;;;;;;;6372300;22;20005;-83
2022/01/21 21:15:24;;;;;;;20.58;11.55;;;;;;;;;;6372106;22;20003;-83
2022/01/21 21:18:00;;;;;;;16.75;7.70;;;;;;;;;;6371968;22;20009;-83
2022/01/21 21:26:13;;;;;;;36.85;19.20;;;;;;;;;;6371875;22;20076;-83
2022/01/21 22:34:43;;;;;;;35.75;16.92;;;;;;;;;;6371556;22;20448;-83
2022/01/21 23:01:14;;;;;;;25.10;12.40;;;;;;;;;;6371402;22;20054;-83
2022/01/21 23:03:40;;;;;;;25.05;12.25;;;;;;;;;;6371135;22;19998;-83
2022/01/21 23:06:10;;;;;;;22.65;11.35;;;;;;;;;;6370707;22;20002;-84
2022/01/21 23:08:38;;;;;;;19.80;10.80;;;;;;;;;;6343377;22;20066;-84
2022/01/21 23:11:05;;;;;;;15.07;7.45;;;;;;;;;;6371188;22;20002;-84
2022/01/21 23:13:31;;;;;;;11.90;6.43;;;;;;;;;;6371074;22;20047;-85
2022/01/21 23:15:58;;;;;;;18.40;8.85;;;;;;;;;;6371050;22;20010;-84
2022/01/21 23:18:27;;;;;;;15.13;8.45;;;;;;;;;;6343303;22;20006;-84
2022/01/21 23:20:53;;;;;;;15.07;8.53;;;;;;;;;;6371321;22;20002;-84
2022/01/21 23:23:19;;;;;;;17.58;9.15;;;;;;;;;;6370901;22;20421;-84
2022/01/21 23:25:56;;;;;;;15.88;8.57;;;;;;;;;;6370857;22;20006;-85
2022/01/21 23:28:27;;;;;;;15.75;9.52;;;;;;;;;;6343781;22;20041;-85
2022/01/21 23:30:52;;;;;;;13.02;8.18;;;;;;;;;;6371010;22;20444;-83
2022/01/21 23:33:22;;;;;;;18.70;9.23;;;;;;;;;;6370766;22;20001;-83
2022/01/21 23:35:47;;;;;;;15.88;8.57;;;;;;;;;;6343088;22;20106;-83
2022/01/21 23:40:41;;;;;;;17.33;10.02;;;;;;;;;;6381485;22;20096;-84
2022/01/21 23:43:07;;;;;;;15.55;8.43;;;;;;;;;;6370793;22;20003;-85
2022/01/21 23:45:33;;;;;;;17.08;9.13;;;;;;;;;;6370464;22;20009;-84
